sensor_id;sensor_type;location;lat;lon;timestamp;P1;durP1;ratioP1;P2;durP2;ratioP2
52450;SDS011;38366;53.176;6.540;2023-02-15T00:01:39;20.15;;;10.88;;
52450;SDS011;38366;53.176;6.540;2023-02-15T00:04:05;17.98;;;9.73;;
52450;SDS011;38366;53.176;6.540;2023-02-15T00:06:32;19.17;;;10.50;;
52450;SDS011;38366;53.176;6.540;2023-02-15T00:08:58;19.15;;;10.93;;
52450;SDS011;38366;53.176;6.540;2023-02-15T00:11:24;17.83;;;10.10;;
52450;SDS011;38366;53.176;6.540;2023-02-15T00:14:20;19.15;;;10.80;;
52450;SDS011;38366;53.176;6.540;2023-02-15T00:16:49;19.13;;;10.40;;
52450;SDS011;38366;53.176;6.540;2023-02-15T00:19:17;27.83;;;11.32;;
52450;SDS011;38366;53.176;6.540;2023-02-15T00:21:44;25.42;;;11.65;;
52450;SDS011;38366;53.176;6.540;2023-02-15T00:24:11;19.35;;;11.60;;
52450;SDS011;38366;53.176;6.540;2023-02-15T00:26:39;19.63;;;11.18;;
52450;SDS011;38366;53.176;6.540;2023-02-15T00:29:05;28.98;;;13.25;;
52450;SDS011;38366;53.176;6.540;2023-02-15T00:34:01;23.55;;;12.55;;
52450;SDS011;38366;53.176;6.540;2023-02-15T00:36:47;20.73;;;11.82;;
52450;SDS011;38366;53.176;6.540;2023-02-15T00:39:13;25.25;;;13.05;;
52450;SDS011;38366;53.176;6.540;2023-02-15T00:44:05;28.38;;;12.32;;
52450;SDS011;38366;53.176;6.540;2023-02-15T00:46:32;28.70;;;13.35;;
52450;SDS011;38366;53.176;6.540;2023-02-15T00:48:57;26.05;;;12.93;;
52450;SDS011;38366;53.176;6.540;2023-02-15T00:51:23;24.77;;;13.20;;
52450;SDS011;38366;53.176;6.540;2023-02-15T00:53:49;25.85;;;12.98;;
52450;SDS011;38366;53.176;6.540;2023-02-15T00:56:15;22.73;;;12.88;;
52450;SDS011;38366;53.176;6.540;2023-02-15T00:58:41;21.23;;;12.65;;
52450;SDS011;38366;53.176;6.540;2023-02-15T01:01:18;22.00;;;13.35;;
52450;SDS011;38366;53.176;6.540;2023-02-15T01:06:14;20.10;;;12.38;;
52450;SDS011;38366;53.176;6.540;2023-02-15T01:08:41;21.27;;;11.90;;
52450;SDS011;38366;53.176;6.540;2023-02-15T01:11:08;20.80;;;12.43;;
52450;SDS011;38366;53.176;6.540;2023-02-15T01:13:36;22.05;;;12.90;;
52450;SDS011;38366;53.176;6.540;2023-02-15T01:16:02;22.35;;;13.43;;
52450;SDS011;38366;53.176;6.540;2023-02-15T01:20:55;22.75;;;13.50;;
52450;SDS011;38366;53.176;6.540;2023-02-15T01:23:21;24.00;;;13.23;;
52450;SDS011;38366;53.176;6.540;2023-02-15T01:25:47;23.45;;;13.75;;
52450;SDS011;38366;53.176;6.540;2023-02-15T01:28:12;24.65;;;13.43;;
52450;SDS011;38366;53.176;6.540;2023-02-15T01:30:38;22.15;;;13.68;;
52450;SDS011;38366;53.176;6.540;2023-02-15T01:33:04;24.20;;;13.77;;
52450;SDS011;38366;53.176;6.540;2023-02-15T01:35:30;23.57;;;13.43;;
52450;SDS011;38366;53.176;6.540;2023-02-15T01:37:56;22.08;;;12.65;;
52450;SDS011;38366;53.176;6.540;2023-02-15T01:40:22;22.65;;;12.77;;
52450;SDS011;38366;53.176;6.540;2023-02-15T01:42:53;23.42;;;13.05;;
52450;SDS011;38366;53.176;6.540;2023-02-15T01:48:01;25.83;;;14.30;;
52450;SDS011;38366;53.176;6.540;2023-02-15T01:50:53;25.60;;;14.23;;
52450;SDS011;38366;53.176;6.540;2023-02-15T01:53:23;25.83;;;14.02;;
52450;SDS011;38366;53.176;6.540;2023-02-15T01:56:00;28.10;;;14.70;;
52450;SDS011;38366;53.176;6.540;2023-02-15T01:58:30;29.17;;;15.63;;
52450;SDS011;38366;53.176;6.540;2023-02-15T02:00:59;24.77;;;14.10;;
52450;SDS011;38366;53.176;6.540;2023-02-15T02:08:39;23.17;;;13.73;;
52450;SDS011;38366;53.176;6.540;2023-02-15T02:11:12;26.50;;;13.98;;
52450;SDS011;38366;53.176;6.540;2023-02-15T02:13:42;40.53;;;15.90;;
52450;SDS011;38366;53.176;6.540;2023-02-15T02:35:13;116.60;;;20.45;;
52450;SDS011;38366;53.176;6.540;2023-02-15T02:43:03;73.63;;;19.27;;
52450;SDS011;38366;53.176;6.540;2023-02-15T02:48:19;108.30;;;20.48;;
52450;SDS011;38366;53.176;6.540;2023-02-15T02:50:49;105.47;;;19.85;;
52450;SDS011;38366;53.176;6.540;2023-02-15T02:53:15;59.10;;;18.00;;
52450;SDS011;38366;53.176;6.540;2023-02-15T02:55:42;35.37;;;17.00;;
52450;SDS011;38366;53.176;6.540;2023-02-15T03:00:52;35.50;;;17.63;;
52450;SDS011;38366;53.176;6.540;2023-02-15T03:03:43;40.85;;;18.65;;
52450;SDS011;38366;53.176;6.540;2023-02-15T03:06:17;41.20;;;18.58;;
52450;SDS011;38366;53.176;6.540;2023-02-15T03:08:50;31.77;;;17.55;;
52450;SDS011;38366;53.176;6.540;2023-02-15T03:11:22;33.28;;;17.48;;
52450;SDS011;38366;53.176;6.540;2023-02-15T03:13:48;31.58;;;17.75;;
52450;SDS011;38366;53.176;6.540;2023-02-15T03:19:01;32.88;;;18.15;;
52450;SDS011;38366;53.176;6.540;2023-02-15T03:21:35;35.03;;;18.02;;
52450;SDS011;38366;53.176;6.540;2023-02-15T03:24:15;30.27;;;16.85;;
52450;SDS011;38366;53.176;6.540;2023-02-15T03:26:46;28.58;;;16.50;;
52450;SDS011;38366;53.176;6.540;2023-02-15T03:29:17;28.08;;;15.95;;
52450;SDS011;38366;53.176;6.540;2023-02-15T03:31:45;31.52;;;17.70;;
52450;SDS011;38366;53.176;6.540;2023-02-15T03:34:16;26.83;;;15.82;;
52450;SDS011;38366;53.176;6.540;2023-02-15T03:41:41;25.20;;;15.65;;
52450;SDS011;38366;53.176;6.540;2023-02-15T03:46:56;25.33;;;14.63;;
52450;SDS011;38366;53.176;6.540;2023-02-15T03:49:54;27.60;;;15.68;;
52450;SDS011;38366;53.176;6.540;2023-02-15T03:52:21;27.95;;;16.25;;
52450;SDS011;38366;53.176;6.540;2023-02-15T03:54:50;25.92;;;16.67;;
52450;SDS011;38366;53.176;6.540;2023-02-15T03:57:21;25.73;;;15.88;;
52450;SDS011;38366;53.176;6.540;2023-02-15T04:03:11;25.80;;;15.98;;
52450;SDS011;38366;53.176;6.540;2023-02-15T04:05:45;27.98;;;16.30;;
52450;SDS011;38366;53.176;6.540;2023-02-15T04:08:11;26.27;;;16.23;;
52450;SDS011;38366;53.176;6.540;2023-02-15T04:13:21;27.40;;;16.48;;
52450;SDS011;38366;53.176;6.540;2023-02-15T04:15:48;24.23;;;15.20;;
52450;SDS011;38366;53.176;6.540;2023-02-15T04:18:29;25.50;;;15.63;;
52450;SDS011;38366;53.176;6.540;2023-02-15T04:21:14;29.25;;;16.42;;
52450;SDS011;38366;53.176;6.540;2023-02-15T04:23:58;24.27;;;15.30;;
52450;SDS011;38366;53.176;6.540;2023-02-15T04:26:42;26.23;;;15.82;;
52450;SDS011;38366;53.176;6.540;2023-02-15T04:29:08;29.13;;;16.87;;
52450;SDS011;38366;53.176;6.540;2023-02-15T04:31:33;26.87;;;16.07;;
52450;SDS011;38366;53.176;6.540;2023-02-15T04:33:59;26.47;;;16.37;;
52450;SDS011;38366;53.176;6.540;2023-02-15T04:36:25;24.60;;;15.23;;
52450;SDS011;38366;53.176;6.540;2023-02-15T04:38:51;22.77;;;14.38;;
52450;SDS011;38366;53.176;6.540;2023-02-15T04:41:16;25.17;;;14.90;;
52450;SDS011;38366;53.176;6.540;2023-02-15T04:43:42;21.97;;;14.67;;
52450;SDS011;38366;53.176;6.540;2023-02-15T04:46:08;27.17;;;16.30;;
52450;SDS011;38366;53.176;6.540;2023-02-15T04:48:33;29.45;;;16.90;;
52450;SDS011;38366;53.176;6.540;2023-02-15T04:50:59;26.30;;;16.35;;
52450;SDS011;38366;53.176;6.540;2023-02-15T04:53:31;30.92;;;18.25;;
52450;SDS011;38366;53.176;6.540;2023-02-15T04:55:57;36.65;;;19.75;;
52450;SDS011;38366;53.176;6.540;2023-02-15T04:58:23;36.15;;;18.80;;
52450;SDS011;38366;53.176;6.540;2023-02-15T05:00:49;44.50;;;22.48;;
52450;SDS011;38366;53.176;6.540;2023-02-15T05:03:15;45.05;;;21.70;;
52450;SDS011;38366;53.176;6.540;2023-02-15T05:05:40;49.60;;;23.87;;
52450;SDS011;38366;53.176;6.540;2023-02-15T05:08:06;46.53;;;23.67;;
52450;SDS011;38366;53.176;6.540;2023-02-15T05:10:32;40.63;;;20.75;;
52450;SDS011;38366;53.176;6.540;2023-02-15T05:12:58;37.30;;;20.77;;
52450;SDS011;38366;53.176;6.540;2023-02-15T05:15:23;37.08;;;20.27;;
52450;SDS011;38366;53.176;6.540;2023-02-15T05:17:49;45.33;;;21.50;;
52450;SDS011;38366;53.176;6.540;2023-02-15T05:20:15;39.25;;;21.58;;
52450;SDS011;38366;53.176;6.540;2023-02-15T05:22:40;34.97;;;21.05;;
52450;SDS011;38366;53.176;6.540;2023-02-15T05:25:07;42.47;;;21.38;;
52450;SDS011;38366;53.176;6.540;2023-02-15T05:27:52;47.88;;;23.52;;
52450;SDS011;38366;53.176;6.540;2023-02-15T05:30:37;48.90;;;24.98;;
52450;SDS011;38366;53.176;6.540;2023-02-15T05:33:05;51.17;;;24.50;;
52450;SDS011;38366;53.176;6.540;2023-02-15T05:35:31;50.97;;;24.08;;
52450;SDS011;38366;53.176;6.540;2023-02-15T05:37:58;58.22;;;27.23;;
52450;SDS011;38366;53.176;6.540;2023-02-15T05:40:23;59.28;;;26.92;;
52450;SDS011;38366;53.176;6.540;2023-02-15T05:42:49;63.53;;;29.25;;
52450;SDS011;38366;53.176;6.540;2023-02-15T05:45:15;68.57;;;30.77;;
52450;SDS011;38366;53.176;6.540;2023-02-15T05:47:41;67.57;;;30.73;;
52450;SDS011;38366;53.176;6.540;2023-02-15T05:50:07;58.83;;;28.05;;
52450;SDS011;38366;53.176;6.540;2023-02-15T05:52:34;65.95;;;29.88;;
52450;SDS011;38366;53.176;6.540;2023-02-15T05:54:59;66.88;;;29.70;;
52450;SDS011;38366;53.176;6.540;2023-02-15T05:57:25;69.07;;;30.88;;
52450;SDS011;38366;53.176;6.540;2023-02-15T05:59:51;77.57;;;34.13;;
52450;SDS011;38366;53.176;6.540;2023-02-15T06:02:20;79.22;;;33.78;;
52450;SDS011;38366;53.176;6.540;2023-02-15T06:04:46;80.60;;;35.80;;
52450;SDS011;38366;53.176;6.540;2023-02-15T06:07:11;84.45;;;35.78;;
52450;SDS011;38366;53.176;6.540;2023-02-15T06:09:37;88.63;;;36.73;;
52450;SDS011;38366;53.176;6.540;2023-02-15T06:12:03;85.10;;;36.53;;
52450;SDS011;38366;53.176;6.540;2023-02-15T06:14:28;85.68;;;37.53;;
52450;SDS011;38366;53.176;6.540;2023-02-15T06:16:54;87.53;;;35.53;;
52450;SDS011;38366;53.176;6.540;2023-02-15T06:19:20;81.45;;;35.88;;
52450;SDS011;38366;53.176;6.540;2023-02-15T06:21:47;81.78;;;34.72;;
52450;SDS011;38366;53.176;6.540;2023-02-15T06:24:13;86.05;;;36.55;;
52450;SDS011;38366;53.176;6.540;2023-02-15T06:26:39;69.95;;;32.15;;
52450;SDS011;38366;53.176;6.540;2023-02-15T06:29:05;70.25;;;33.35;;
52450;SDS011;38366;53.176;6.540;2023-02-15T06:31:31;74.70;;;32.47;;
52450;SDS011;38366;53.176;6.540;2023-02-15T06:33:56;69.60;;;30.92;;
52450;SDS011;38366;53.176;6.540;2023-02-15T06:36:26;65.20;;;27.88;;
52450;SDS011;38366;53.176;6.540;2023-02-15T06:38:53;50.25;;;24.17;;
52450;SDS011;38366;53.176;6.540;2023-02-15T06:41:19;62.00;;;28.75;;
52450;SDS011;38366;53.176;6.540;2023-02-15T06:43:45;63.20;;;28.40;;
52450;SDS011;38366;53.176;6.540;2023-02-15T06:46:11;66.40;;;29.00;;
52450;SDS011;38366;53.176;6.540;2023-02-15T06:48:37;63.30;;;27.38;;
52450;SDS011;38366;53.176;6.540;2023-02-15T06:51:03;68.68;;;31.25;;
52450;SDS011;38366;53.176;6.540;2023-02-15T06:53:29;57.97;;;26.33;;
52450;SDS011;38366;53.176;6.540;2023-02-15T06:56:01;56.33;;;27.52;;
52450;SDS011;38366;53.176;6.540;2023-02-15T06:58:31;59.38;;;27.52;;
52450;SDS011;38366;53.176;6.540;2023-02-15T07:01:00;59.40;;;27.02;;
52450;SDS011;38366;53.176;6.540;2023-02-15T07:03:26;55.65;;;27.85;;
52450;SDS011;38366;53.176;6.540;2023-02-15T07:05:55;62.45;;;28.27;;
52450;SDS011;38366;53.176;6.540;2023-02-15T07:08:21;60.63;;;27.50;;
52450;SDS011;38366;53.176;6.540;2023-02-15T07:10:48;56.33;;;28.55;;
52450;SDS011;38366;53.176;6.540;2023-02-15T07:13:14;55.70;;;26.50;;
52450;SDS011;38366;53.176;6.540;2023-02-15T07:15:40;57.83;;;26.10;;
52450;SDS011;38366;53.176;6.540;2023-02-15T07:18:06;63.92;;;28.30;;
52450;SDS011;38366;53.176;6.540;2023-02-15T07:20:32;56.88;;;26.98;;
52450;SDS011;38366;53.176;6.540;2023-02-15T07:23:00;61.10;;;26.23;;
52450;SDS011;38366;53.176;6.540;2023-02-15T07:25:26;50.92;;;23.98;;
52450;SDS011;38366;53.176;6.540;2023-02-15T07:27:59;47.65;;;24.73;;
52450;SDS011;38366;53.176;6.540;2023-02-15T07:30:29;57.73;;;26.40;;
52450;SDS011;38366;53.176;6.540;2023-02-15T07:32:55;49.47;;;23.58;;
52450;SDS011;38366;53.176;6.540;2023-02-15T07:35:53;49.97;;;23.98;;
52450;SDS011;38366;53.176;6.540;2023-02-15T07:38:23;54.05;;;26.88;;
52450;SDS011;38366;53.176;6.540;2023-02-15T07:41:00;48.83;;;23.40;;
52450;SDS011;38366;53.176;6.540;2023-02-15T07:43:27;55.63;;;25.52;;
52450;SDS011;38366;53.176;6.540;2023-02-15T07:45:54;46.60;;;22.70;;
52450;SDS011;38366;53.176;6.540;2023-02-15T07:48:23;50.80;;;24.48;;
52450;SDS011;38366;53.176;6.540;2023-02-15T07:50:49;59.05;;;26.38;;
52450;SDS011;38366;53.176;6.540;2023-02-15T07:53:15;55.67;;;25.60;;
52450;SDS011;38366;53.176;6.540;2023-02-15T07:55:40;52.60;;;25.60;;
52450;SDS011;38366;53.176;6.540;2023-02-15T07:58:06;49.90;;;25.20;;
52450;SDS011;38366;53.176;6.540;2023-02-15T08:00:32;45.85;;;23.95;;
52450;SDS011;38366;53.176;6.540;2023-02-15T08:03:17;46.65;;;23.33;;
52450;SDS011;38366;53.176;6.540;2023-02-15T08:05:44;43.83;;;22.00;;
52450;SDS011;38366;53.176;6.540;2023-02-15T08:10:58;41.08;;;20.33;;
52450;SDS011;38366;53.176;6.540;2023-02-15T08:19:13;38.63;;;19.70;;
52450;SDS011;38366;53.176;6.540;2023-02-15T08:21:42;33.00;;;19.15;;
52450;SDS011;38366;53.176;6.540;2023-02-15T08:24:11;33.63;;;17.95;;
52450;SDS011;38366;53.176;6.540;2023-02-15T08:26:38;35.88;;;18.67;;
52450;SDS011;38366;53.176;6.540;2023-02-15T08:29:04;31.63;;;17.02;;
52450;SDS011;38366;53.176;6.540;2023-02-15T08:31:32;29.83;;;16.70;;
52450;SDS011;38366;53.176;6.540;2023-02-15T08:36:25;28.85;;;16.73;;
52450;SDS011;38366;53.176;6.540;2023-02-15T08:38:53;28.40;;;16.65;;
52450;SDS011;38366;53.176;6.540;2023-02-15T08:41:24;27.42;;;16.23;;
52450;SDS011;38366;53.176;6.540;2023-02-15T08:43:54;27.92;;;16.30;;
52450;SDS011;38366;53.176;6.540;2023-02-15T08:46:22;32.05;;;16.33;;
52450;SDS011;38366;53.176;6.540;2023-02-15T08:48:49;26.90;;;15.60;;
52450;SDS011;38366;53.176;6.540;2023-02-15T08:51:16;26.30;;;15.40;;
52450;SDS011;38366;53.176;6.540;2023-02-15T08:53:44;27.75;;;16.50;;
52450;SDS011;38366;53.176;6.540;2023-02-15T08:56:14;27.17;;;16.38;;
52450;SDS011;38366;53.176;6.540;2023-02-15T08:58:40;24.30;;;15.20;;
52450;SDS011;38366;53.176;6.540;2023-02-15T09:01:12;29.50;;;15.87;;
52450;SDS011;38366;53.176;6.540;2023-02-15T09:06:09;26.70;;;15.60;;
52450;SDS011;38366;53.176;6.540;2023-02-15T09:08:35;25.38;;;16.20;;
52450;SDS011;38366;53.176;6.540;2023-02-15T09:11:09;25.38;;;15.68;;
52450;SDS011;38366;53.176;6.540;2023-02-15T09:13:38;27.23;;;16.20;;
52450;SDS011;38366;53.176;6.540;2023-02-15T09:16:05;25.60;;;15.40;;
52450;SDS011;38366;53.176;6.540;2023-02-15T09:18:34;25.90;;;16.05;;
52450;SDS011;38366;53.176;6.540;2023-02-15T09:21:04;24.67;;;14.75;;
52450;SDS011;38366;53.176;6.540;2023-02-15T09:26:14;26.20;;;14.55;;
52450;SDS011;38366;53.176;6.540;2023-02-15T09:28:42;27.38;;;16.27;;
52450;SDS011;38366;53.176;6.540;2023-02-15T09:31:12;27.88;;;15.07;;
52450;SDS011;38366;53.176;6.540;2023-02-15T09:33:43;27.58;;;16.92;;
52450;SDS011;38366;53.176;6.540;2023-02-15T09:38:44;25.13;;;15.38;;
52450;SDS011;38366;53.176;6.540;2023-02-15T10:06:14;26.10;;;17.05;;
52450;SDS011;38366;53.176;6.540;2023-02-15T10:09:10;26.40;;;16.65;;
52450;SDS011;38366;53.176;6.540;2023-02-15T10:14:46;24.17;;;15.95;;
52450;SDS011;38366;53.176;6.540;2023-02-15T10:28:06;28.55;;;17.48;;
52450;SDS011;38366;53.176;6.540;2023-02-15T10:30:50;30.77;;;15.70;;
52450;SDS011;38366;53.176;6.540;2023-02-15T10:39:20;27.40;;;17.17;;
52450;SDS011;38366;53.176;6.540;2023-02-15T10:50:06;26.07;;;17.17;;
52450;SDS011;38366;53.176;6.540;2023-02-15T10:52:50;29.10;;;17.80;;
52450;SDS011;38366;53.176;6.540;2023-02-15T10:55:45;25.58;;;17.52;;
52450;SDS011;38366;53.176;6.540;2023-02-15T11:07:12;29.27;;;18.67;;
52450;SDS011;38366;53.176;6.540;2023-02-15T11:09:46;31.65;;;19.23;;
52450;SDS011;38366;53.176;6.540;2023-02-15T11:12:16;27.77;;;19.30;;
52450;SDS011;38366;53.176;6.540;2023-02-15T11:15:30;30.85;;;18.33;;
52450;SDS011;38366;53.176;6.540;2023-02-15T11:17:53;31.92;;;21.38;;
52450;SDS011;38366;53.176;6.540;2023-02-15T11:20:38;29.80;;;20.42;;
52450;SDS011;38366;53.176;6.540;2023-02-15T11:23:16;29.23;;;20.70;;
52450;SDS011;38366;53.176;6.540;2023-02-15T11:28:57;29.25;;;19.48;;
52450;SDS011;38366;53.176;6.540;2023-02-15T11:31:46;32.38;;;19.70;;
52450;SDS011;38366;53.176;6.540;2023-02-15T11:34:21;31.35;;;20.42;;
52450;SDS011;38366;53.176;6.540;2023-02-15T11:36:49;29.63;;;18.50;;
52450;SDS011;38366;53.176;6.540;2023-02-15T11:39:16;29.25;;;19.45;;
52450;SDS011;38366;53.176;6.540;2023-02-15T11:41:46;31.33;;;18.30;;
52450;SDS011;38366;53.176;6.540;2023-02-15T11:44:23;29.33;;;18.65;;
52450;SDS011;38366;53.176;6.540;2023-02-15T11:46:53;29.27;;;19.42;;
52450;SDS011;38366;53.176;6.540;2023-02-15T11:49:23;32.92;;;19.00;;
52450;SDS011;38366;53.176;6.540;2023-02-15T11:51:56;31.35;;;19.27;;
52450;SDS011;38366;53.176;6.540;2023-02-15T11:54:33;30.35;;;19.55;;
52450;SDS011;38366;53.176;6.540;2023-02-15T12:00:00;32.80;;;19.00;;
52450;SDS011;38366;53.176;6.540;2023-02-15T12:02:27;33.00;;;19.60;;
52450;SDS011;38366;53.176;6.540;2023-02-15T12:04:59;30.42;;;20.02;;
52450;SDS011;38366;53.176;6.540;2023-02-15T12:10:25;29.90;;;18.17;;
52450;SDS011;38366;53.176;6.540;2023-02-15T12:13:27;29.48;;;19.70;;
52450;SDS011;38366;53.176;6.540;2023-02-15T12:15:53;28.90;;;19.10;;
52450;SDS011;38366;53.176;6.540;2023-02-15T12:21:02;34.75;;;20.15;;
52450;SDS011;38366;53.176;6.540;2023-02-15T12:23:32;31.80;;;19.63;;
52450;SDS011;38366;53.176;6.540;2023-02-15T12:25:58;31.95;;;20.13;;
52450;SDS011;38366;53.176;6.540;2023-02-15T12:30:58;31.45;;;20.63;;
52450;SDS011;38366;53.176;6.540;2023-02-15T12:33:31;35.08;;;21.15;;
52450;SDS011;38366;53.176;6.540;2023-02-15T12:36:24;37.47;;;20.95;;
52450;SDS011;38366;53.176;6.540;2023-02-15T12:41:38;35.33;;;20.45;;
52450;SDS011;38366;53.176;6.540;2023-02-15T12:44:18;33.75;;;21.83;;
52450;SDS011;38366;53.176;6.540;2023-02-15T12:47:46;37.20;;;22.40;;
52450;SDS011;38366;53.176;6.540;2023-02-15T12:49:40;36.08;;;23.05;;
52450;SDS011;38366;53.176;6.540;2023-02-15T12:54:45;38.67;;;23.35;;
52450;SDS011;38366;53.176;6.540;2023-02-15T12:57:13;39.55;;;24.00;;
52450;SDS011;38366;53.176;6.540;2023-02-15T12:59:57;35.03;;;22.30;;
52450;SDS011;38366;53.176;6.540;2023-02-15T13:05:04;37.03;;;23.38;;
52450;SDS011;38366;53.176;6.540;2023-02-15T13:07:44;35.72;;;23.58;;
52450;SDS011;38366;53.176;6.540;2023-02-15T13:10:23;31.83;;;20.92;;
52450;SDS011;38366;53.176;6.540;2023-02-15T13:15:34;33.75;;;20.27;;
52450;SDS011;38366;53.176;6.540;2023-02-15T13:18:02;38.40;;;21.45;;
52450;SDS011;38366;53.176;6.540;2023-02-15T13:20:31;36.35;;;18.88;;
52450;SDS011;38366;53.176;6.540;2023-02-15T13:23:01;37.45;;;21.80;;
52450;SDS011;38366;53.176;6.540;2023-02-15T13:25:31;36.05;;;20.40;;
52450;SDS011;38366;53.176;6.540;2023-02-15T13:28:04;39.03;;;20.38;;
52450;SDS011;38366;53.176;6.540;2023-02-15T13:30:33;36.03;;;19.95;;
52450;SDS011;38366;53.176;6.540;2023-02-15T13:33:03;37.40;;;20.90;;
52450;SDS011;38366;53.176;6.540;2023-02-15T13:41:21;35.20;;;19.02;;
52450;SDS011;38366;53.176;6.540;2023-02-15T13:46:52;39.22;;;19.70;;
52450;SDS011;38366;53.176;6.540;2023-02-15T13:52:20;34.92;;;17.70;;
52450;SDS011;38366;53.176;6.540;2023-02-15T14:00:16;33.60;;;18.77;;
52450;SDS011;38366;53.176;6.540;2023-02-15T14:02:56;35.30;;;19.15;;
52450;SDS011;38366;53.176;6.540;2023-02-15T14:16:51;32.42;;;18.23;;
52450;SDS011;38366;53.176;6.540;2023-02-15T14:22:02;37.38;;;18.55;;
52450;SDS011;38366;53.176;6.540;2023-02-15T14:32:49;36.33;;;17.02;;
52450;SDS011;38366;53.176;6.540;2023-02-15T14:35:19;33.55;;;17.73;;
52450;SDS011;38366;53.176;6.540;2023-02-15T14:37:58;34.88;;;19.13;;
52450;SDS011;38366;53.176;6.540;2023-02-15T14:41:03;31.35;;;17.25;;
52450;SDS011;38366;53.176;6.540;2023-02-15T14:44:00;34.15;;;16.40;;
52450;SDS011;38366;53.176;6.540;2023-02-15T14:46:50;32.50;;;17.40;;
52450;SDS011;38366;53.176;6.540;2023-02-15T14:49:35;31.90;;;16.75;;
52450;SDS011;38366;53.176;6.540;2023-02-15T14:52:06;31.48;;;16.80;;
52450;SDS011;38366;53.176;6.540;2023-02-15T15:02:21;31.65;;;16.52;;
52450;SDS011;38366;53.176;6.540;2023-02-15T15:04:56;29.60;;;15.80;;
52450;SDS011;38366;53.176;6.540;2023-02-15T15:07:29;30.60;;;16.60;;
52450;SDS011;38366;53.176;6.540;2023-02-15T15:10:06;29.88;;;16.20;;
52450;SDS011;38366;53.176;6.540;2023-02-15T15:12:53;30.60;;;16.10;;
52450;SDS011;38366;53.176;6.540;2023-02-15T15:28:06;32.38;;;16.17;;
52450;SDS011;38366;53.176;6.540;2023-02-15T15:41:52;33.17;;;16.38;;
52450;SDS011;38366;53.176;6.540;2023-02-15T15:44:54;33.25;;;16.63;;
52450;SDS011;38366;53.176;6.540;2023-02-15T15:50:38;31.10;;;16.48;;
52450;SDS011;38366;53.176;6.540;2023-02-15T15:53:05;33.78;;;17.55;;
52450;SDS011;38366;53.176;6.540;2023-02-15T15:55:39;35.13;;;17.90;;
52450;SDS011;38366;53.176;6.540;2023-02-15T15:58:13;34.28;;;17.92;;
52450;SDS011;38366;53.176;6.540;2023-02-15T16:03:29;39.78;;;17.83;;
52450;SDS011;38366;53.176;6.540;2023-02-15T16:05:55;31.98;;;15.95;;
52450;SDS011;38366;53.176;6.540;2023-02-15T16:11:13;36.35;;;17.45;;
52450;SDS011;38366;53.176;6.540;2023-02-15T16:16:07;31.58;;;16.30;;
52450;SDS011;38366;53.176;6.540;2023-02-15T16:18:33;34.10;;;17.48;;
52450;SDS011;38366;53.176;6.540;2023-02-15T16:21:13;34.63;;;17.17;;
52450;SDS011;38366;53.176;6.540;2023-02-15T16:23:50;32.65;;;16.30;;
52450;SDS011;38366;53.176;6.540;2023-02-15T16:29:31;32.78;;;17.08;;
52450;SDS011;38366;53.176;6.540;2023-02-15T16:32:05;33.70;;;17.10;;
52450;SDS011;38366;53.176;6.540;2023-02-15T16:34:56;34.90;;;16.45;;
52450;SDS011;38366;53.176;6.540;2023-02-15T16:37:27;36.97;;;17.60;;
52450;SDS011;38366;53.176;6.540;2023-02-15T16:39:57;32.78;;;16.92;;
52450;SDS011;38366;53.176;6.540;2023-02-15T16:42:22;34.85;;;17.23;;
52450;SDS011;38366;53.176;6.540;2023-02-15T16:44:57;31.60;;;16.55;;
52450;SDS011;38366;53.176;6.540;2023-02-15T16:47:31;36.25;;;17.65;;
52450;SDS011;38366;53.176;6.540;2023-02-15T16:50:01;36.83;;;17.45;;
52450;SDS011;38366;53.176;6.540;2023-02-15T16:52:29;34.83;;;16.83;;
52450;SDS011;38366;53.176;6.540;2023-02-15T16:54:56;34.72;;;16.92;;
52450;SDS011;38366;53.176;6.540;2023-02-15T16:57:26;34.20;;;17.02;;
52450;SDS011;38366;53.176;6.540;2023-02-15T16:59:55;37.80;;;16.52;;
52450;SDS011;38366;53.176;6.540;2023-02-15T17:02:30;37.75;;;17.40;;
52450;SDS011;38366;53.176;6.540;2023-02-15T17:07:38;32.10;;;16.83;;
52450;SDS011;38366;53.176;6.540;2023-02-15T17:10:25;33.20;;;17.85;;
52450;SDS011;38366;53.176;6.540;2023-02-15T17:13:05;32.00;;;16.65;;
52450;SDS011;38366;53.176;6.540;2023-02-15T17:15:36;32.35;;;16.77;;
52450;SDS011;38366;53.176;6.540;2023-02-15T17:18:23;34.28;;;17.20;;
52450;SDS011;38366;53.176;6.540;2023-02-15T17:20:56;34.47;;;16.92;;
52450;SDS011;38366;53.176;6.540;2023-02-15T17:23:34;32.08;;;16.50;;
52450;SDS011;38366;53.176;6.540;2023-02-15T17:31:19;32.10;;;16.58;;
52450;SDS011;38366;53.176;6.540;2023-02-15T17:33:46;36.00;;;16.42;;
52450;SDS011;38366;53.176;6.540;2023-02-15T17:38:39;33.40;;;17.58;;
52450;SDS011;38366;53.176;6.540;2023-02-15T17:41:15;31.20;;;16.52;;
52450;SDS011;38366;53.176;6.540;2023-02-15T17:43:41;34.43;;;17.73;;
52450;SDS011;38366;53.176;6.540;2023-02-15T17:46:07;37.53;;;18.10;;
52450;SDS011;38366;53.176;6.540;2023-02-15T17:48:35;35.40;;;17.10;;
52450;SDS011;38366;53.176;6.540;2023-02-15T17:51:03;34.42;;;18.15;;
52450;SDS011;38366;53.176;6.540;2023-02-15T17:53:30;38.10;;;18.02;;
52450;SDS011;38366;53.176;6.540;2023-02-15T17:55:56;35.15;;;18.00;;
52450;SDS011;38366;53.176;6.540;2023-02-15T17:58:22;37.55;;;17.17;;
52450;SDS011;38366;53.176;6.540;2023-02-15T18:03:59;34.53;;;16.55;;
52450;SDS011;38366;53.176;6.540;2023-02-15T18:06:42;36.45;;;17.35;;
52450;SDS011;38366;53.176;6.540;2023-02-15T18:09:27;36.45;;;16.92;;
52450;SDS011;38366;53.176;6.540;2023-02-15T18:14:40;38.40;;;18.90;;
52450;SDS011;38366;53.176;6.540;2023-02-15T18:17:05;41.40;;;18.37;;
52450;SDS011;38366;53.176;6.540;2023-02-15T18:19:35;36.10;;;17.02;;
52450;SDS011;38366;53.176;6.540;2023-02-15T18:22:04;35.72;;;18.10;;
52450;SDS011;38366;53.176;6.540;2023-02-15T18:24:36;42.63;;;17.98;;
52450;SDS011;38366;53.176;6.540;2023-02-15T18:27:03;36.47;;;17.00;;
52450;SDS011;38366;53.176;6.540;2023-02-15T18:29:29;37.75;;;18.35;;
52450;SDS011;38366;53.176;6.540;2023-02-15T18:31:55;36.75;;;17.80;;
52450;SDS011;38366;53.176;6.540;2023-02-15T18:34:31;33.25;;;16.58;;
52450;SDS011;38366;53.176;6.540;2023-02-15T18:37:02;35.30;;;18.25;;
52450;SDS011;38366;53.176;6.540;2023-02-15T18:39:38;36.78;;;17.23;;
52450;SDS011;38366;53.176;6.540;2023-02-15T18:42:24;37.75;;;18.05;;
52450;SDS011;38366;53.176;6.540;2023-02-15T18:44:56;39.35;;;18.02;;
52450;SDS011;38366;53.176;6.540;2023-02-15T18:50:50;37.13;;;17.85;;
52450;SDS011;38366;53.176;6.540;2023-02-15T18:53:18;39.78;;;18.40;;
52450;SDS011;38366;53.176;6.540;2023-02-15T18:55:45;32.53;;;17.63;;
52450;SDS011;38366;53.176;6.540;2023-02-15T18:58:15;35.80;;;16.92;;
52450;SDS011;38366;53.176;6.540;2023-02-15T19:00:46;36.22;;;17.13;;
52450;SDS011;38366;53.176;6.540;2023-02-15T19:03:14;38.72;;;17.35;;
52450;SDS011;38366;53.176;6.540;2023-02-15T19:05:41;36.35;;;17.95;;
52450;SDS011;38366;53.176;6.540;2023-02-15T19:08:12;36.22;;;17.13;;
52450;SDS011;38366;53.176;6.540;2023-02-15T19:10:46;37.17;;;17.30;;
52450;SDS011;38366;53.176;6.540;2023-02-15T19:13:12;38.83;;;18.35;;
52450;SDS011;38366;53.176;6.540;2023-02-15T19:15:38;33.17;;;17.10;;
52450;SDS011;38366;53.176;6.540;2023-02-15T19:18:05;38.90;;;17.85;;